NORTHEAST SUFFOLK  -  Winter Weather Advisory Winter Weather Advisory        NORTHERN NASSAU  -  Winter Weather Advisory Winter Weather Advisory        NORTHWEST SUFFOLK  -  Winter Weather Advisory Winter Weather Advisory        SOUTHEAST SUFFOLK  -  Winter Weather Advisory Winter Weather Advisory        SOUTHERN NASSAU  -  Winter Weather Advisory Winter Weather Advisory        SOUTHWEST SUFFOLK  -  Winter Weather Advisory Winter Weather Advisory      

Active alerts

Northern Nassau
  Details for Northern Nassau Winter Weather Advisory
Southern Nassau
  Details for Southern Nassau Winter Weather Advisory
Northwest Suffolk
  Details for Northwest Suffolk Winter Weather Advisory
Southwest Suffolk
  Details for Southwest Suffolk Winter Weather Advisory
Northeast Suffolk
  Details for Northeast Suffolk Winter Weather Advisory
Southeast Suffolk
  Details for Southeast Suffolk Winter Weather Advisory


WXM80 ListenWXM80 Stop

You find our weather info also at:

UK Metoffice

WeatherCloud

Weather Underground

Northeastern Weather Network

AWEKAS

Citizen Weather Observer Program (CWOP)

HAMweather, WeatherForYou, PWS Weather


Weather Underground History page Text

Daily Summary for March 6, 2017 Units:  Metric    English   Both
« Previous Day
Next Day »
Daily Weekly Monthly Yearly Custom
  High: Low: Average:
Temperature: 6.1 °C -4.3 °C 1.2 °C
Dew Point: 0.5 °C -14.1 °C -8.3 °C
Humidity: 77 % 34 % 50 %
Wind Speed: 9.5 km/h 0 km/h 2.9 km/h
Wind Gust: 14.8 km/h - -
Wind:- - SE
Pressure: 1033.4 hPa 1029.3 hPa -
Precipitation: 0 mm    
Historical Graphs
 
 
Tabular Data for March 6, 2017
Time Temperature Dew Point Pressure Wind Wind Speed Wind Gust Humidity Rainfall Rate (Hourly)
00:02 -2.1 °C -13.6 °C 1033.1 hPa NNW 5.8 km/h 9.3 km/h 41 % 0 mm
00:07 -2.2 °C -13.1 °C 1032.7 hPa North 0.2 km/h 1.9 km/h 43 % 0 mm
00:12 -2.2 °C -13.1 °C 1032.7 hPa NNW 3.7 km/h 5.6 km/h 43 % 0 mm
00:17 -2.3 °C -13.2 °C 1033.1 hPa NW 2.3 km/h 5.6 km/h 43 % 0 mm
00:23 -2.3 °C -13.2 °C 1033.1 hPa WNW 5.6 km/h 9.7 km/h 43 % 0 mm
00:28 -2.4 °C -13.3 °C 1033.1 hPa WNW 1 km/h 3.7 km/h 43 % 0 mm
00:33 -2.4 °C -13.3 °C 1033.1 hPa WNW 2.7 km/h 5.6 km/h 43 % 0 mm
00:38 -2.4 °C -13.3 °C 1033.1 hPa WNW 0.3 km/h 1.9 km/h 43 % 0 mm
00:43 -2.5 °C -13.4 °C 1033.1 hPa WNW 0.8 km/h 5.6 km/h 43 % 0 mm
00:48 -2.6 °C -13.4 °C 1033.1 hPa WNW 1.6 km/h 4.8 km/h 43 % 0 mm
00:53 -2.7 °C -13.6 °C 1032.7 hPa WNW 1.6 km/h 3.2 km/h 43 % 0 mm
00:58 -2.7 °C -13.3 °C 1033.1 hPa WNW 1.9 km/h 1.9 km/h 44 % 0 mm
01:03 -2.8 °C -13.3 °C 1033.1 hPa Calm   6.4 km/h 44 % 0 mm
01:08 -2.9 °C -13.4 °C 1033.1 hPa WNW 1.6 km/h 4.8 km/h 44 % 0 mm
01:13 -2.9 °C -13.8 °C 1032.7 hPa NNW 3.2 km/h 8 km/h 43 % 0 mm
01:18 -3 °C -14.1 °C 1033.1 hPa NNE 1.6 km/h 6.4 km/h 42 % 0 mm
01:23 -3.1 °C -13.9 °C 1033.1 hPa Calm   3.2 km/h 43 % 0 mm
01:28 -3.1 °C -13.9 °C 1032.7 hPa Calm   3.2 km/h 43 % 0 mm
01:33 -3.1 °C -13.9 °C 1033.1 hPa North 0.8 km/h 4.8 km/h 43 % 0 mm
01:38 -3.2 °C -14 °C 1032.7 hPa NNW 3.2 km/h 6.4 km/h 43 % 0 mm
01:43 -3.2 °C -13.5 °C 1032.7 hPa Calm   3.2 km/h 45 % 0 mm
01:53 -3.4 °C -13.6 °C 1032.7 hPa West 1.6 km/h 6.4 km/h 45 % 0 mm
01:58 -3.4 °C -13.4 °C 1032.7 hPa West 3.4 km/h 3.7 km/h 46 % 0 mm
02:03 -3.5 °C -13.2 °C 1032.7 hPa West 0.2 km/h 3.7 km/h 47 % 0 mm
02:08 -3.6 °C -13 °C 1032.7 hPa Calm     48 % 0 mm
02:13 -3.6 °C -13.1 °C 1032.7 hPa Calm     48 % 0 mm
02:18 -3.7 °C -13.1 °C 1032.7 hPa WNW 1.1 km/h 3.7 km/h 48 % 0 mm
02:23 -3.7 °C -12.9 °C 1032.7 hPa WNW 1.8 km/h 3.7 km/h 49 % 0 mm
02:29 -3.8 °C -12.9 °C 1032.7 hPa WNW 1.6 km/h 5.6 km/h 49 % 0 mm
02:34 -3.8 °C -12.9 °C 1032.7 hPa WNW 0.6 km/h 3.7 km/h 49 % 0 mm
02:39 -3.8 °C -12.8 °C 1032.7 hPa Calm     50 % 0 mm
02:44 -3.8 °C -13 °C 1032.4 hPa WNW 0.6 km/h 3.7 km/h 49 % 0 mm
02:49 -3.9 °C -13.1 °C 1032.4 hPa WNW 0.3 km/h 3.7 km/h 49 % 0 mm
02:54 -3.9 °C -13.1 °C 1032.4 hPa WNW 1.8 km/h 3.7 km/h 49 % 0 mm
02:59 -3.9 °C -13.1 °C 1032.4 hPa Calm     49 % 0 mm
03:04 -3.9 °C -13.1 °C 1032.1 hPa WNW 0.2 km/h   49 % 0 mm
03:09 -3.9 °C -12.6 °C 1032.1 hPa WNW 0.2 km/h 1.9 km/h 51 % 0 mm
03:14 -4 °C -12.2 °C 1032.1 hPa Calm   1.6 km/h 53 % 0 mm
03:19 -4.1 °C -12.2 °C 1032.1 hPa WNW 1.6 km/h 5.6 km/h 53 % 0 mm
03:24 -4.2 °C -13.1 °C 1032.1 hPa North 4.5 km/h 7.4 km/h 50 % 0 mm
03:29 -4.2 °C -12.6 °C 1032.4 hPa NNE 2.1 km/h 5.6 km/h 52 % 0 mm
03:35 -4.3 °C -12.5 °C 1032.1 hPa NNE 4.2 km/h 5.6 km/h 53 % 0 mm
03:40 -4.3 °C -12.9 °C 1032.1 hPa NNE 8.7 km/h 11.3 km/h 51 % 0 mm
03:45 -4.3 °C -12.7 °C 1032.4 hPa NNE 6.3 km/h 9.3 km/h 52 % 0 mm
03:50 -4.2 °C -12.6 °C 1032.4 hPa NNE 5.6 km/h 13 km/h 52 % 0 mm
03:52 -4.2 °C -12.8 °C 1032.4 hPa NNE 4 km/h 5.6 km/h 51 % 0 mm
03:57 -4.1 °C -12.8 °C 1032.7 hPa North 7.2 km/h 13 km/h 51 % 0 mm
04:02 -4 °C -12.9 °C 1032.7 hPa North 3.9 km/h 9.3 km/h 50 % 0 mm
04:07 -3.9 °C -13.1 °C 1032.7 hPa North 4 km/h 7.4 km/h 49 % 0 mm
04:12 -3.8 °C -13 °C 1032.7 hPa NNE 5.5 km/h 8 km/h 49 % 0 mm
04:17 -3.8 °C -12.9 °C 1032.7 hPa NNE 5.1 km/h 6.4 km/h 49 % 0 mm
04:22 -3.8 °C -13.2 °C 1032.7 hPa NNE 6.4 km/h 9.3 km/h 48 % 0 mm
04:27 -3.7 °C -13.2 °C 1032.7 hPa NNE 6.4 km/h 9.3 km/h 48 % 0 mm
04:32 -3.7 °C -12.9 °C 1032.7 hPa NNE 2.4 km/h 5.6 km/h 49 % 0 mm
04:37 -3.7 °C -12.9 °C 1033.1 hPa North 1.6 km/h 4.8 km/h 49 % 0 mm
04:42 -3.7 °C -12.7 °C 1033.1 hPa North 1 km/h 3.7 km/h 50 % 0 mm
04:47 -3.7 °C -12.4 °C 1033.1 hPa North 0.6 km/h 5.6 km/h 51 % 0 mm
04:53 -3.7 °C -12.4 °C 1033.1 hPa North 1.8 km/h 4.8 km/h 51 % 0 mm
04:58 -3.7 °C -12.7 °C 1033.1 hPa North 0.2 km/h 5.6 km/h 50 % 0 mm
05:03 -3.8 °C -12.7 °C 1033.1 hPa North 0.3 km/h 1.9 km/h 50 % 0 mm
05:08 -3.8 °C -12.7 °C 1033.1 hPa North 1.3 km/h 3.7 km/h 50 % 0 mm
05:13 -3.8 °C -12.5 °C 1033.1 hPa North 0.5 km/h 3.2 km/h 51 % 0 mm
05:14 -3.8 °C -12.5 °C 1033.1 hPa North 2.7 km/h 5.6 km/h 51 % 0 mm
05:19 -3.8 °C -12.3 °C 1033.1 hPa North 0.3 km/h 1.9 km/h 52 % 0 mm
05:24 -3.9 °C -12.3 °C 1033.1 hPa North 0.6 km/h 3.7 km/h 52 % 0 mm
05:30 -3.9 °C -12.4 °C 1033.1 hPa North 0.6 km/h 5.6 km/h 52 % 0 mm
05:35 -4 °C -12.4 °C 1033.1 hPa North 0.6 km/h 1.9 km/h 52 % 0 mm
05:40 -4.1 °C -12.5 °C 1033.1 hPa NNW 0.6 km/h 5.6 km/h 52 % 0 mm
05:45 -4.1 °C -12.5 °C 1033.1 hPa NNW 0.3 km/h 1.9 km/h 52 % 0 mm
05:50 -4.2 °C -12.6 °C 1033.1 hPa NNW 1.1 km/h 4.8 km/h 52 % 0 mm
05:55 -4.2 °C -12.6 °C 1033.1 hPa Calm     52 % 0 mm
06:00 -4.2 °C -12.6 °C 1033.1 hPa Calm   3.7 km/h 52 % 0 mm
06:05 -4.3 °C -12.7 °C 1033.1 hPa Calm     52 % 0 mm
06:07 -4.3 °C -12.7 °C 1033.1 hPa NNW 0.2 km/h 1.6 km/h 52 % 0 mm
06:12 -4.3 °C -12.9 °C 1033.1 hPa NNW 1.3 km/h 3.7 km/h 51 % 0 mm
06:17 -4.3 °C -12.9 °C 1033.1 hPa NNW 3.1 km/h 5.6 km/h 51 % 0 mm
06:22 -4.3 °C -12.9 °C 1033.1 hPa NNW 0.5 km/h 5.6 km/h 51 % 0 mm
06:27 -4.3 °C -12.9 °C 1033.1 hPa North 1.9 km/h 5.6 km/h 51 % 0 mm
06:32 -4.3 °C -12.9 °C 1033.4 hPa North 3.2 km/h 5.6 km/h 51 % 0 mm
06:37 -4.2 °C -13.1 °C 1033.1 hPa NNW 0.5 km/h 3.7 km/h 50 % 0 mm
06:42 -4.2 °C -13.1 °C 1033.1 hPa NNW 3.4 km/h 5.6 km/h 50 % 0 mm
06:47 -4.1 °C -12.9 °C 1033.1 hPa NNW 2.3 km/h 3.7 km/h 50 % 0 mm
06:52 -3.9 °C -12.8 °C 1033.1 hPa North 2.1 km/h 3.7 km/h 50 % 0 mm
06:57 -3.8 °C -12.4 °C 1033.1 hPa North 4.2 km/h 6.4 km/h 51 % 0 mm
07:03 -3.6 °C -12.5 °C 1033.4 hPa North 2.3 km/h 3.7 km/h 50 % 0 mm
07:08 -3.3 °C -12.1 °C 1033.4 hPa NNE 4.5 km/h 5.6 km/h 51 % 0 mm
07:13 -3.1 °C -12.1 °C 1033.4 hPa NNE 1.9 km/h 3.7 km/h 50 % 0 mm
07:18 -2.8 °C -11.8 °C 1033.4 hPa NNE 5.1 km/h 7.4 km/h 50 % 0 mm
07:23 -2.5 °C -11.5 °C 1033.1 hPa NNE 1.6 km/h 4.8 km/h 50 % 0 mm
07:28 -2.2 °C -11.5 °C 1033.1 hPa NNE 3.2 km/h 6.4 km/h 49 % 0 mm
07:33 -2 °C -11.3 °C 1033.1 hPa NNE 1.6 km/h 6.4 km/h 49 % 0 mm
07:38 -1.7 °C -11.3 °C 1033.1 hPa NNE 1.1 km/h 3.7 km/h 48 % 0 mm
07:43 -1.4 °C -10.8 °C 1033.1 hPa NNE 3.2 km/h 6.4 km/h 49 % 0 mm
07:48 -1.2 °C -10.8 °C 1033.1 hPa NE 2.4 km/h 5.6 km/h 48 % 0 mm
07:53 -1.1 °C -11.2 °C 1033.1 hPa NE 1.6 km/h 8 km/h 46 % 0 mm
07:58 -0.9 °C -10.6 °C 1033.1 hPa NNE 4.8 km/h 6.4 km/h 48 % 0 mm
08:03 -0.7 °C -10.7 °C 1033.1 hPa NNE 4 km/h 5.6 km/h 47 % 0 mm
08:08 -0.6 °C -10.5 °C 1033.1 hPa NE 3.7 km/h 5.6 km/h 47 % 0 mm
08:13 -0.5 °C -11.3 °C 1033.1 hPa NE 1.1 km/h 5.6 km/h 44 % 0 mm
08:18 -0.3 °C -10.8 °C 1033.1 hPa NE 0.8 km/h 3.2 km/h 45 % 0 mm
08:23 -0.1 °C -10.9 °C 1033.1 hPa Calm   1.9 km/h 44 % 0 mm
08:28 0 °C -11.4 °C 1033.1 hPa NE 5.1 km/h 8 km/h 42 % 0 mm
08:33 0 °C -11.7 °C 1033.1 hPa East 3.7 km/h 5.6 km/h 41 % 0 mm
08:39 -0.2 °C -12.2 °C 1033.1 hPa ENE 3.5 km/h 7.4 km/h 40 % 0 mm
08:44 -0.1 °C -11.5 °C 1033.1 hPa NE 2.6 km/h 5.6 km/h 42 % 0 mm
08:49 -0.1 °C -11.5 °C 1033.1 hPa ENE 3.4 km/h 5.6 km/h 42 % 0 mm
08:54 -0.2 °C -11.8 °C 1033.1 hPa ENE 1.3 km/h 5.6 km/h 41 % 0 mm
08:59 -0.3 °C -11.7 °C 1033.1 hPa ENE 1.3 km/h 5.6 km/h 42 % 0 mm
09:04 -0.3 °C -11.4 °C 1033.1 hPa ENE 3.4 km/h 5.6 km/h 43 % 0 mm
09:09 -0.3 °C -11.7 °C 1033.1 hPa ENE 7.4 km/h 7.4 km/h 42 % 0 mm
09:14 -0.3 °C -11.7 °C 1033.4 hPa ENE 3.2 km/h 6.4 km/h 42 % 0 mm
09:19 -0.2 °C -11.3 °C 1033.4 hPa ENE 4.3 km/h 8 km/h 43 % 0 mm
09:24 0.2 °C -11.3 °C 1033.4 hPa ENE 1.1 km/h 5.6 km/h 42 % 0 mm
09:29 0.3 °C -11.4 °C 1033.4 hPa ESE 4 km/h 6.4 km/h 41 % 0 mm
09:34 0.5 °C -11.6 °C 1033.4 hPa ENE 2.7 km/h 4.8 km/h 40 % 0 mm
09:39 0.8 °C -11.6 °C 1033.4 hPa ENE 1.3 km/h 5.6 km/h 39 % 0 mm
09:45 1 °C -11.4 °C 1033.4 hPa NE 2.6 km/h 5.6 km/h 39 % 0 mm
09:50 1.1 °C -11.4 °C 1033.4 hPa NNE 2.1 km/h 6.4 km/h 39 % 0 mm
09:55 1.2 °C -11.3 °C 1033.4 hPa NE 0.8 km/h 3.2 km/h 39 % 0 mm
10:00 1.5 °C -10.7 °C 1033.4 hPa ENE 3.1 km/h 7.4 km/h 40 % 0 mm
10:05 1.4 °C -11.3 °C 1033.4 hPa ENE 4.8 km/h 5.6 km/h 38 % 0 mm
10:10 1.3 °C -10.8 °C 1033.1 hPa ENE 1.1 km/h 3.7 km/h 40 % 0 mm
10:15 1.6 °C -10.6 °C 1033.1 hPa NE 3.9 km/h 7.4 km/h 40 % 0 mm
10:20 1.7 °C -10.8 °C 1033.1 hPa NE 3.1 km/h 5.6 km/h 39 % 0 mm
10:25 2.1 °C -10.2 °C 1033.1 hPa NE 2.3 km/h 5.6 km/h 40 % 0 mm
10:30 2.6 °C -10.1 °C 1033.1 hPa North 4.7 km/h 5.6 km/h 39 % 0 mm
10:35 3.1 °C -9.9 °C 1033.1 hPa North 4.5 km/h 9.7 km/h 38 % 0 mm
10:40 3.4 °C -9.9 °C 1033.1 hPa NNE 4.5 km/h 6.4 km/h 37 % 0 mm
10:45 3.7 °C -10.1 °C 1033.1 hPa NNE 4.8 km/h 8 km/h 36 % 0 mm
10:51 3.8 °C -10.3 °C 1033.1 hPa NNE 5.3 km/h 6.4 km/h 35 % 0 mm
10:56 3.9 °C -9.8 °C 1033.1 hPa NE 5 km/h 7.4 km/h 36 % 0 mm
11:01 4.2 °C -9.6 °C 1033.1 hPa NE 3.7 km/h 6.4 km/h 36 % 0 mm
11:06 4.3 °C -9.9 °C 1032.7 hPa NNE 3.7 km/h 5.6 km/h 35 % 0 mm
11:11 4.2 °C -10.3 °C 1032.7 hPa ENE 2.7 km/h 5.6 km/h 34 % 0 mm
11:16 4.1 °C -8.9 °C 1032.7 hPa NE 2.9 km/h 5.6 km/h 38 % 0 mm
11:21 4.5 °C -10.1 °C 1032.7 hPa NE 2.4 km/h 5.6 km/h 34 % 0 mm
11:26 3.9 °C -10.6 °C 1032.7 hPa NNE 2.9 km/h 5.6 km/h 34 % 0 mm
11:31 4.1 °C -9 °C 1032.4 hPa ENE 3.9 km/h 5.6 km/h 38 % 0 mm
11:34 4.3 °C -8.8 °C 1032.4 hPa NE 5 km/h 9.3 km/h 38 % 0 mm
11:39 4.5 °C -8.3 °C 1032.4 hPa NE 4.3 km/h 5.6 km/h 39 % 0 mm
11:44 4.9 °C -7.6 °C 1032.4 hPa NNE 4.5 km/h 6.4 km/h 40 % 0 mm
11:49 5.3 °C -7.9 °C 1032.4 hPa NNE 2.4 km/h 5.6 km/h 38 % 0 mm
11:55 5.3 °C -7.6 °C 1032.1 hPa NNE 5.1 km/h 7.4 km/h 39 % 0 mm
12:00 5.3 °C -7.9 °C 1032.1 hPa ENE 3.2 km/h 5.6 km/h 38 % 0 mm
12:05 5.3 °C -7.6 °C 1032.1 hPa NNW 6.1 km/h 9.3 km/h 39 % 0 mm
12:10 5.1 °C -8.4 °C 1032.1 hPa ENE 4.8 km/h 7.4 km/h 37 % 0 mm
12:15 4.8 °C -7.7 °C 1031.7 hPa ENE 4 km/h 7.4 km/h 40 % 0 mm
12:20 4.7 °C -8.1 °C 1031.7 hPa NNE 5.1 km/h 9.3 km/h 39 % 0 mm
12:25 4.9 °C -6.9 °C 1031.7 hPa NNE 6.1 km/h 9.3 km/h 42 % 0 mm
12:30 5 °C -7.2 °C 1031.7 hPa NNW 6.3 km/h 9.7 km/h 41 % 0 mm
12:35 5.1 °C -7.1 °C 1031.4 hPa NE 3.2 km/h 5.6 km/h 41 % 0 mm
12:40 5.1 °C -6.8 °C 1031.4 hPa North 4.7 km/h 8 km/h 42 % 0 mm
12:46 5.4 °C -6.2 °C 1031 hPa NNE 4 km/h 5.6 km/h 43 % 0 mm
12:51 5.8 °C -5.2 °C 1031 hPa NE 3.5 km/h 5.6 km/h 45 % 0 mm
12:56 5.9 °C -6 °C 1031 hPa NNE 3.9 km/h 6.4 km/h 42 % 0 mm
13:01 6.1 °C -5.9 °C 1031 hPa North 4.7 km/h 7.4 km/h 42 % 0 mm
13:06 6 °C -6.3 °C 1031 hPa North 0.6 km/h 9.3 km/h 41 % 0 mm
13:11 6 °C -6.6 °C 1030.7 hPa North 1.3 km/h 5.6 km/h 40 % 0 mm
13:16 6.1 °C -6.6 °C 1030.7 hPa North 3.5 km/h 5.6 km/h 40 % 0 mm
13:21 6.1 °C -6.8 °C 1030.7 hPa NNE 3.5 km/h 7.4 km/h 39 % 0 mm
13:26 5.9 °C -7.3 °C 1030.7 hPa NE 4.7 km/h 6.4 km/h 38 % 0 mm
13:31 5.8 °C -6.8 °C 1030.4 hPa NNE 3.5 km/h 5.6 km/h 40 % 0 mm
13:36 6.1 °C -6.6 °C 1030.4 hPa NNE 5.3 km/h 7.4 km/h 40 % 0 mm
13:41 6.1 °C -6.9 °C 1030.4 hPa NE 4.8 km/h 11.1 km/h 39 % 0 mm
13:46 5.8 °C -6.8 °C 1030.4 hPa NE 6 km/h 7.4 km/h 40 % 0 mm
13:51 5.8 °C -6.8 °C 1030.4 hPa NE 3.4 km/h 5.6 km/h 40 % 0 mm
13:57 5.9 °C -6.4 °C 1030.4 hPa NE 3.5 km/h 5.6 km/h 41 % 0 mm
14:02 5.9 °C -7.4 °C 1030 hPa East 3.9 km/h 7.4 km/h 38 % 0 mm
14:07 5.9 °C -7.7 °C 1030 hPa ENE 2.3 km/h 5.6 km/h 37 % 0 mm
14:12 5.9 °C -8 °C 1030 hPa ENE 6.1 km/h 7.4 km/h 36 % 0 mm
14:17 5.8 °C -8.1 °C 1030 hPa NNE 7.2 km/h 9.3 km/h 36 % 0 mm
14:22 5.8 °C -8.1 °C 1030 hPa NNE 5.5 km/h 9.7 km/h 36 % 0 mm
14:27 5.8 °C -7.4 °C 1030 hPa NE 3.9 km/h 7.4 km/h 38 % 0 mm
14:32 5.7 °C -7.2 °C 1030 hPa NE 4.3 km/h 7.4 km/h 39 % 0 mm
14:37 5.5 °C -7.1 °C 1030 hPa North 4.3 km/h 9.3 km/h 40 % 0 mm
14:42 5.4 °C -7.8 °C 1030 hPa NE 4.2 km/h 5.6 km/h 38 % 0 mm
14:47 5.4 °C -8.4 °C 1030 hPa NNE 5.1 km/h 7.4 km/h 36 % 0 mm
14:52 5.4 °C -8.5 °C 1030 hPa North 4.8 km/h 7.4 km/h 36 % 0 mm
14:57 5.4 °C -8.5 °C 1030 hPa NNE 4.2 km/h 6.4 km/h 36 % 0 mm
15:02 5.2 °C -8.7 °C 1030 hPa NNE 3.2 km/h 5.6 km/h 36 % 0 mm
15:07 5.2 °C -9.1 °C 1030 hPa NNW 5.5 km/h 7.4 km/h 35 % 0 mm
15:13 5.2 °C -9.1 °C 1030 hPa NNE 4.2 km/h 5.6 km/h 35 % 0 mm
15:18 5.1 °C -8.4 °C 1030 hPa North 4 km/h 5.6 km/h 37 % 0 mm
15:23 5 °C -8.9 °C 1030 hPa NNE 4.7 km/h 7.4 km/h 36 % 0 mm
15:28 4.9 °C -8.6 °C 1030 hPa NNE 1.6 km/h 4.8 km/h 37 % 0 mm
15:33 5 °C -8.2 °C 1030 hPa NNE 1.6 km/h 4.8 km/h 38 % 0 mm
15:38 4.9 °C -8.9 °C 1030 hPa NNE 2.9 km/h 5.6 km/h 36 % 0 mm
15:43 4.8 °C -8.7 °C 1029.7 hPa NNE 1.6 km/h 4.8 km/h 37 % 0 mm
15:48 4.8 °C -8.4 °C 1029.7 hPa NNE 2.1 km/h 5.6 km/h 38 % 0 mm
15:53 4.8 °C -8.4 °C 1029.7 hPa Calm   3.2 km/h 38 % 0 mm
15:58 4.7 °C -8.4 °C 1029.7 hPa Calm   1.9 km/h 38 % 0 mm
16:03 4.7 °C -9.1 °C 1029.7 hPa Calm     36 % 0 mm
16:08 4.7 °C -8.8 °C 1029.7 hPa NE 2.7 km/h 5.6 km/h 37 % 0 mm
16:13 4.7 °C -8.4 °C 1029.7 hPa Calm     38 % 0 mm
16:18 4.8 °C -8.1 °C 1029.7 hPa SSE 0.3 km/h 3.7 km/h 39 % 0 mm
16:23 4.8 °C -7.7 °C 1029.7 hPa West 0.3 km/h 1.9 km/h 40 % 0 mm
16:28 4.9 °C -7.2 °C 1029.3 hPa SSW 3.5 km/h 9.3 km/h 41 % 0 mm
16:34 5.1 °C -6.8 °C 1029.7 hPa South 1.1 km/h 7.4 km/h 42 % 0 mm
16:39 5.2 °C -6.7 °C 1029.3 hPa SSW 2.7 km/h 5.6 km/h 42 % 0 mm
16:44 5.2 °C -6.7 °C 1029.7 hPa SSW 9.5 km/h 14.8 km/h 42 % 0 mm
16:47 5.2 °C -6.7 °C 1029.7 hPa SW 5.5 km/h 11.1 km/h 42 % 0 mm
16:52 5.2 °C -6.7 °C 1029.7 hPa SSW 3.7 km/h 7.4 km/h 42 % 0 mm
16:57 5.1 °C -6.2 °C 1029.7 hPa SSW 4.7 km/h 8 km/h 44 % 0 mm
16:58 5.1 °C -6.2 °C 1029.7 hPa SSW 7.9 km/h 13 km/h 44 % 0 mm
17:01 5.1 °C -6.2 °C 1029.7 hPa SSW 6.9 km/h 9.3 km/h 44 % 0 mm
17:06 4.8 °C -6.4 °C 1029.7 hPa SSW 1.4 km/h 9.3 km/h 44 % 0 mm
17:11 4.7 °C -6.2 °C 1029.7 hPa SSW 5.3 km/h 9.3 km/h 45 % 0 mm
17:16 4.6 °C -6.1 °C 1029.7 hPa SSW 2.4 km/h 5.6 km/h 46 % 0 mm
17:21 4.5 °C -6.1 °C 1030 hPa SSW 3.1 km/h 5.6 km/h 46 % 0 mm
17:26 4.4 °C -5.9 °C 1029.7 hPa SW 1.9 km/h 7.4 km/h 47 % 0 mm
17:31 4.3 °C -5.8 °C 1029.7 hPa South 1.8 km/h 6.4 km/h 48 % 0 mm
17:37 4.1 °C -5.7 °C 1029.7 hPa SSE 6.6 km/h 9.3 km/h 49 % 0 mm
17:42 3.8 °C -5.7 °C 1029.7 hPa South 6.3 km/h 9.3 km/h 50 % 0 mm
17:47 3.7 °C -5.5 °C 1029.7 hPa South 1.8 km/h 5.6 km/h 51 % 0 mm
17:52 3.6 °C -5.4 °C 1029.7 hPa SSW 5.3 km/h 7.4 km/h 52 % 0 mm
17:55 3.5 °C -5.2 °C 1029.7 hPa SW 7.6 km/h 12.9 km/h 53 % 0 mm
18:00 3.4 °C -5.3 °C 1029.7 hPa SSE 5.1 km/h 11.3 km/h 53 % 0 mm
18:05 3.3 °C -5.2 °C 1029.7 hPa South 4.5 km/h 5.6 km/h 54 % 0 mm
18:10 3.2 °C -4.8 °C 1029.7 hPa SSW 7.2 km/h 11.3 km/h 56 % 0 mm
18:18 3 °C -4.7 °C 1029.7 hPa SSW 1.6 km/h 9.7 km/h 57 % 0 mm
18:19 3 °C -4.7 °C 1029.7 hPa SW 3.9 km/h 11.3 km/h 57 % 0 mm
18:24 2.9 °C -4.5 °C 1030 hPa SSW 5 km/h 11.3 km/h 58 % 0 mm
18:29 2.8 °C -4.6 °C 1029.7 hPa South 4.8 km/h 7.4 km/h 58 % 0 mm
18:34 2.8 °C -4.4 °C 1030 hPa SSW 1.9 km/h 3.7 km/h 59 % 0 mm
18:35 2.8 °C -4.4 °C 1029.7 hPa SSW 1.4 km/h 3.7 km/h 59 % 0 mm
18:40 2.8 °C -4.4 °C 1030 hPa South 4 km/h 4 km/h 59 % 0 mm
18:45 2.7 °C -4.5 °C 1030 hPa SSE 0.3 km/h 5.6 km/h 59 % 0 mm
18:50 2.7 °C -4.3 °C 1030 hPa South 3.7 km/h 8 km/h 60 % 0 mm
18:55 2.7 °C -4.1 °C 1029.7 hPa SSW 4.8 km/h 7.4 km/h 61 % 0 mm
19:00 2.6 °C -4.2 °C 1029.7 hPa South 2.9 km/h 11.1 km/h 61 % 0 mm
19:05 2.5 °C -4.3 °C 1029.7 hPa South 1.6 km/h 4.8 km/h 61 % 0 mm
19:10 2.5 °C -4.1 °C 1030 hPa South 2.3 km/h 5.6 km/h 62 % 0 mm
19:15 2.4 °C -4.1 °C 1029.7 hPa SSW 2.9 km/h 8 km/h 62 % 0 mm
19:21 2.4 °C -3.9 °C 1029.7 hPa SSW 3.2 km/h 7.4 km/h 63 % 0 mm
19:24 2.4 °C -3.9 °C 1030 hPa South 4.7 km/h 7.4 km/h 63 % 0 mm
19:29 2.3 °C -3.8 °C 1030 hPa South 2.9 km/h 7.4 km/h 64 % 0 mm
19:32 2.3 °C -3.8 °C 1030 hPa South 3.4 km/h 7.4 km/h 64 % 0 mm
19:37 2.2 °C -3.7 °C 1030 hPa SSW 3.7 km/h 8 km/h 65 % 0 mm
19:42 2.2 °C -3.7 °C 1030 hPa SSW 5.1 km/h 11.1 km/h 65 % 0 mm
19:47 2.2 °C -3.6 °C 1029.7 hPa South 3.7 km/h 7.4 km/h 66 % 0 mm
19:52 2.1 °C -3.6 °C 1030 hPa SSW 4.7 km/h 5.6 km/h 66 % 0 mm
19:53 2.1 °C -3.4 °C 1030 hPa South 6.1 km/h 11.1 km/h 67 % 0 mm
19:56 2.1 °C -3.4 °C 1030 hPa South 8 km/h 13 km/h 67 % 0 mm
20:00 2.1 °C -3.4 °C 1030 hPa South 4.3 km/h 9.7 km/h 67 % 0 mm
20:03 2.1 °C -3.4 °C 1030 hPa SSW 2.4 km/h 7.4 km/h 67 % 0 mm
20:08 2.1 °C -3.2 °C 1030 hPa South 4.3 km/h 6.4 km/h 68 % 0 mm
20:13 2 °C -3.3 °C 1030 hPa SSW 4 km/h 9.3 km/h 68 % 0 mm
20:18 2 °C -3.1 °C 1030 hPa South 0.6 km/h 3.7 km/h 69 % 0 mm
20:23 1.9 °C -3.2 °C 1030 hPa SSW 2.3 km/h 5.6 km/h 69 % 0 mm
20:28 1.9 °C -3.2 °C 1030 hPa SW 1.3 km/h 3.7 km/h 69 % 0 mm
20:33 1.9 °C -3.2 °C 1030 hPa SSW 1.1 km/h 3.7 km/h 69 % 0 mm
20:38 1.9 °C -2.9 °C 1030 hPa South 1.6 km/h 5.6 km/h 70 % 0 mm
20:44 1.9 °C -2.9 °C 1030 hPa South 0.8 km/h 3.2 km/h 70 % 0 mm
20:49 1.9 °C -2.8 °C 1030 hPa South 2.4 km/h 5.6 km/h 71 % 0 mm
20:54 1.9 °C -2.6 °C 1029.7 hPa South 3.1 km/h 7.4 km/h 72 % 0 mm
20:59 1.9 °C -2.6 °C 1030 hPa South 1.3 km/h 5.6 km/h 72 % 0 mm
21:04 2 °C -2.3 °C 1029.7 hPa South 2.7 km/h 5.6 km/h 73 % 0 mm
21:09 2.1 °C -2.2 °C 1029.7 hPa SSW 0.8 km/h 7.4 km/h 73 % 0 mm
21:10 2.1 °C -2.2 °C 1029.7 hPa South 2.7 km/h 4.8 km/h 73 % 0 mm
21:15 2.2 °C -2.2 °C 1029.7 hPa Calm   5.6 km/h 73 % 0 mm
21:20 2.3 °C -2.1 °C 1029.7 hPa SSE 4.7 km/h 5.6 km/h 73 % 0 mm
21:25 2.4 °C -1.9 °C 1030 hPa Calm   5.6 km/h 73 % 0 mm
21:30 2.4 °C -1.9 °C 1030 hPa South 2.3 km/h 5.6 km/h 73 % 0 mm
21:35 2.6 °C -1.8 °C 1029.7 hPa South 3.4 km/h 9.3 km/h 73 % 0 mm
21:40 2.7 °C -1.5 °C 1029.7 hPa SSW 3.2 km/h 6.4 km/h 74 % 0 mm
21:45 2.8 °C -1.6 °C 1029.7 hPa South 6 km/h 7.4 km/h 73 % 0 mm
21:50 2.8 °C -1.6 °C 1029.7 hPa South 3.7 km/h 7.4 km/h 73 % 0 mm
21:55 2.9 °C -1.4 °C 1029.7 hPa SSE 3.2 km/h 7.4 km/h 73 % 0 mm
22:00 3.1 °C -1.3 °C 1029.7 hPa South 3.4 km/h 7.4 km/h 73 % 0 mm
22:06 3.1 °C -1.3 °C 1029.7 hPa South 2.3 km/h 5.6 km/h 73 % 0 mm
22:11 3.2 °C -1.2 °C 1029.7 hPa SE 0.6 km/h 8 km/h 73 % 0 mm
22:16 3.3 °C -1.1 °C 1029.7 hPa South 1 km/h 3.7 km/h 73 % 0 mm
22:21 3.3 °C -1.1 °C 1029.7 hPa SSW 3.2 km/h 3.7 km/h 73 % 0 mm
22:26 3.4 °C -1 °C 1029.7 hPa SSW 2.1 km/h 3.7 km/h 73 % 0 mm
22:31 3.4 °C -0.9 °C 1029.7 hPa South 1.1 km/h 5.6 km/h 73 % 0 mm
22:36 3.5 °C -0.9 °C 1029.7 hPa South 2.7 km/h 5.6 km/h 73 % 0 mm
22:41 3.6 °C -0.8 °C 1029.7 hPa South 1.8 km/h 5.6 km/h 73 % 0 mm
22:46 3.6 °C -0.8 °C 1029.7 hPa South 0.8 km/h 3.7 km/h 73 % 0 mm
22:51 3.6 °C -0.6 °C 1029.7 hPa SSE 1.1 km/h 3.7 km/h 74 % 0 mm
22:56 3.7 °C -0.6 °C 1029.7 hPa Calm     74 % 0 mm
23:01 3.7 °C -0.7 °C 1029.7 hPa SE 0.5 km/h 3.7 km/h 73 % 0 mm
23:06 3.8 °C -0.4 °C 1029.7 hPa SSW 0.5 km/h 4.8 km/h 74 % 0 mm
23:11 3.8 °C -0.4 °C 1029.3 hPa Calm   5.6 km/h 74 % 0 mm
23:17 3.9 °C -0.3 °C 1029.7 hPa SE 3.9 km/h 5.6 km/h 74 % 0 mm
23:22 3.9 °C -0.3 °C 1029.7 hPa Calm   1.9 km/h 74 % 0 mm
23:27 4 °C -0.2 °C 1029.7 hPa SE 0.3 km/h 3.7 km/h 74 % 0 mm
23:32 4 °C -0.2 °C 1029.7 hPa Calm   3.7 km/h 74 % 0 mm
23:37 4 °C -0.2 °C 1029.7 hPa SE 0.2 km/h   74 % 0 mm
23:42 4.1 °C 0 °C 1029.7 hPa SSE 1 km/h 5.6 km/h 75 % 0 mm
23:47 4.1 °C 0.3 °C 1029.3 hPa SSE 0.5 km/h 1.9 km/h 76 % 0 mm
23:52 4.1 °C 0.3 °C 1029.3 hPa SSE 1.9 km/h 5.6 km/h 76 % 0 mm
23:57 4.2 °C 0.5 °C 1029.3 hPa SSE 0.2 km/h 1.9 km/h 77 % 0 mm
Crab Meadow Weather
Compliments of Weather Underground - 3 mb

Script developed by  Jim McMurry - jmcmurry@mwt.net Adapted for the template by  Wim van der Kuil - Leuven-Template.eu

Recycling: Recycling 1 aluminum can saves enough energy to run your TV for 3 hours. Recycling aluminum cans saves 95% of the energy used to make cans from virgin ore.